Centre Village, New York
Current Conditions -  °F | °C
As of 1:00 PM on Thursday 27 Nov 2014 (Local Time) from KBGM Reporting Station
Light Snow Light Snow  
Wind Chill: 19°   Ceiling: 1100
Heat Index: 27°   Visibility: 7mi
Dew Point: 24°   Wind: 7mph
Humidity: 89%   Direction: 290°WNW
Pressure: 29.94"   Gusts: NA
Location:  42.1976°N, 75.6682°W
Report Text: KBGM 271800Z 29006KT 7SM -SN BKN011 OVC014 M03/M04 A2994 RMK AO2 CIG 008V012 P0000 T10281044 $
Loading
Personal Weather Stations






























Interactive Weather Map New forecast layout! Learn more

10-Day Weather Forecast

Advertisements
Track Severe Weather on mobile